CDT,Max TemperatureF,Mean TemperatureF,Min TemperatureF,Max Dew PointF,MeanDew PointF,Min DewpointF,Max Humidity, Mean Humidity, Min Humidity, Max Sea Level PressureIn, Mean Sea Level PressureIn, Min Sea Level PressureIn, Max VisibilityMiles, Mean VisibilityMiles, Min VisibilityMiles, Max Wind SpeedMPH, Mean Wind SpeedMPH, Max Gust SpeedMPH,PrecipitationIn, CloudCover, Events, WindDirDegrees
2013-8-1,90,80,69,75,72,66,100,85,57,30.05,29.98,29.91,10,7,0,17,4,24,2.73,4,Fog-Rain-Thunderstorm,210
2013-8-2,91,80,70,74,70,66,97,78,44,30.02,29.98,29.93,10,7,0,7,2,,0.01,1,Fog,16
2013-8-3,93,82,70,77,72,67,91,75,45,30.07,30.03,29.99,10,9,7,8,2,,0.00,0,,337
2013-8-4,91,83,75,75,74,72,94,78,54,30.06,30.02,29.97,10,9,4,9,4,17,0.00,1,,282
2013-8-5,90,82,73,74,72,69,94,77,52,30.04,30.00,29.97,10,8,3,10,2,,0.00,1,,8
2013-8-6,93,83,73,77,73,71,96,82,52,30.03,29.98,29.91,10,8,1,16,2,29,0.61,3,Rain-Thunderstorm,129
2013-8-7,91,80,69,78,72,70,100,80,53,30.01,29.97,29.91,10,8,2,7,2,,0.00,2,,100
2013-8-8,91,82,73,75,73,71,94,80,50,30.01,29.97,29.94,10,9,4,10,2,,0.00,1,Thunderstorm,131
2013-8-9,90,82,73,76,73,71,97,83,55,30.08,30.03,29.98,10,9,4,9,2,,0.00,3,Thunderstorm,152
2013-8-10,91,82,72,75,72,69,100,81,54,30.12,30.09,30.05,10,10,8,17,3,25,0.01,1,Rain-Thunderstorm,155
2013-8-11,91,81,71,75,72,69,96,79,52,30.17,30.13,30.07,10,9,1,10,1,,0.00,3,Rain-Thunderstorm,232
2013-8-12,88,80,71,75,72,70,100,88,59,30.12,30.08,30.02,10,7,1,13,2,28,0.44,2,Rain-Thunderstorm,202
2013-8-13,89,81,73,76,73,72,100,86,59,30.03,29.99,29.94,10,9,1,9,4,,0.04,4,Rain-Thunderstorm,263
2013-8-14,81,77,73,73,72,71,94,85,74,29.97,29.94,29.90,10,10,6,8,4,,0.01,8,Rain,304
2013-8-15,77,74,73,72,72,71,94,90,83,29.99,29.96,29.94,10,7,2,4,1,,0.00,8,,50
2013-8-16,82,76,69,70,69,67,93,82,62,30.05,30.02,29.96,10,10,3,9,5,,0.00,7,,52
2013-8-17,73,71,69,70,68,67,97,92,84,30.06,30.03,29.99,10,8,1,10,5,,0.11,8,Rain,78
2013-8-18,77,73,69,74,69,36,97,90,27,30.10,30.06,30.04,10,10,5,9,5,,0.24,6,Rain,114
2013-8-19,86,78,69,74,71,66,100,89,63,30.09,30.04,29.99,10,8,0,9,4,,0.49,5,Fog-Rain-Thunderstorm,116
2013-8-20,87,79,71,73,71,69,96,84,61,30.11,30.07,30.02,10,9,0,9,2,,0.01,3,Fog-Thunderstorm,113
2013-8-21,89,80,70,76,71,66,94,84,55,30.17,30.11,30.08,10,8,1,9,1,,0.01,2,Rain-Thunderstorm,59
2013-8-22,91,80,69,74,71,67,94,80,52,30.14,30.07,30.00,10,9,2,10,3,21,0.16,2,Rain-Thunderstorm,82
2013-8-23,90,80,69,73,70,66,97,80,53,30.06,30.02,29.97,10,9,2,7,3,,0.01,1,,90
2013-8-24,87,78,69,76,72,67,93,79,58,30.18,30.10,30.02,10,10,10,10,2,,0.00,3,Rain-Thunderstorm,93
2013-8-25,88,80,72,72,70,64,94,80,51,30.24,30.20,30.17,10,10,6,14,6,20,0.00,4,,90
2013-8-26,84,74,64,65,61,58,90,64,41,30.26,30.19,30.13,10,10,10,12,5,,0.00,0,,83
2013-8-27,86,74,62,68,63,59,90,72,46,30.14,30.09,30.05,10,10,10,8,2,,0.00,1,,25
2013-8-28,90,77,64,69,65,62,93,69,40,30.09,30.04,30.01,10,10,10,7,1,,0.01,1,,346
2013-8-29,90,78,66,72,68,64,93,72,50,30.07,30.02,29.97,10,10,8,8,2,,0.00,1,Hail,293
2013-8-30,93,83,73,76,72,69,94,77,50,30.01,29.95,29.90,10,9,6,14,2,24,0.00,2,Rain-Thunderstorm,335
2013-8-31,91,82,73,76,73,70,94,83,59,29.95,29.91,29.87,10,8,2,10,2,21,0.00,1,Thunderstorm,301